createdAt,value
2022-09-26T00:00:06.498Z,12.26
2022-09-26T00:02:32.952Z,12.12
2022-09-26T00:04:59.297Z,12.16
2022-09-26T00:07:25.592Z,12.04
2022-09-26T00:09:51.971Z,12.01
2022-09-26T00:12:18.257Z,11.83
2022-09-26T00:14:44.546Z,11.46
2022-09-26T00:17:10.867Z,11.67
2022-09-26T00:19:37.231Z,11.80
2022-09-26T00:22:03.536Z,11.51
2022-09-26T00:24:29.972Z,11.25
2022-09-26T00:26:56.279Z,11.19
2022-09-26T00:29:22.591Z,11.12
2022-09-26T00:31:49.162Z,11.20
2022-09-26T00:34:17.533Z,11.45
2022-09-26T00:36:43.938Z,11.28
2022-09-26T00:39:11.747Z,11.09
2022-09-26T00:41:38.179Z,11.11
2022-09-26T00:44:24.831Z,11.09
2022-09-26T00:46:51.353Z,11.01
2022-09-26T00:49:32.570Z,11.00
2022-09-26T00:52:01.625Z,11.18
2022-09-26T00:54:29.838Z,10.89
2022-09-26T00:56:59.866Z,10.92
2022-09-26T00:59:31.113Z,10.76
2022-09-26T01:02:00.268Z,10.90
2022-09-26T01:04:28.267Z,11.04
2022-09-26T01:06:59.724Z,11.11
2022-09-26T01:09:26.464Z,11.07
2022-09-26T01:11:53.588Z,10.82
2022-09-26T01:14:21.454Z,10.95
2022-09-26T01:16:48.896Z,10.95
2022-09-26T01:19:15.291Z,10.97
2022-09-26T01:22:00.626Z,11.06
2022-09-26T01:24:45.718Z,10.98
2022-09-26T01:27:15.020Z,10.94
2022-09-26T01:29:56.554Z,11.09
2022-09-26T01:32:50.337Z,11.40
2022-09-26T01:35:16.613Z,11.37
2022-09-26T01:37:59.561Z,11.51
2022-09-26T01:40:51.944Z,11.54
2022-09-26T01:43:21.169Z,11.54
2022-09-26T01:46:14.090Z,11.49
2022-09-26T01:48:44.720Z,11.47
2022-09-26T01:51:16.839Z,11.51
2022-09-26T01:53:46.189Z,11.49
2022-09-26T01:56:14.507Z,11.47
2022-09-26T01:58:52.999Z,11.41
2022-09-26T02:01:21.748Z,11.42
2022-09-26T02:03:53.922Z,11.30
2022-09-26T02:06:25.284Z,11.33
2022-09-26T02:08:58.121Z,11.31
2022-09-26T02:11:25.459Z,11.26
2022-09-26T02:13:55.617Z,11.28
2022-09-26T02:16:24.909Z,11.11
2022-09-26T02:18:54.576Z,11.04
2022-09-26T02:21:21.951Z,11.15
2022-09-26T02:23:49.430Z,11.13
2022-09-26T02:26:15.865Z,11.02
2022-09-26T02:28:42.642Z,11.02
2022-09-26T02:31:10.406Z,10.97
2022-09-26T02:33:37.201Z,11.10
2022-09-26T02:36:05.193Z,10.97
2022-09-26T02:38:31.528Z,11.13
2022-09-26T02:40:57.945Z,11.15
2022-09-26T02:43:37.128Z,11.08
2022-09-26T02:46:14.356Z,11.13
2022-09-26T02:48:46.832Z,11.03
2022-09-26T02:51:16.186Z,11.06
2022-09-26T02:54:01.183Z,11.05
2022-09-26T02:56:46.377Z,10.96
2022-09-26T02:59:22.501Z,10.91
2022-09-26T03:02:07.383Z,10.88
2022-09-26T03:04:43.032Z,10.89
2022-09-26T03:07:11.699Z,10.93
2022-09-26T03:09:39.422Z,10.92
2022-09-26T03:12:06.537Z,10.88
2022-09-26T03:14:34.323Z,10.88
2022-09-26T03:17:01.538Z,11.05
2022-09-26T03:19:32.031Z,11.00
2022-09-26T03:21:59.868Z,10.89
2022-09-26T03:24:26.787Z,11.13
2022-09-26T03:26:53.201Z,11.16
2022-09-26T03:29:20.277Z,11.06
2022-09-26T03:31:46.949Z,11.03
2022-09-26T03:34:13.260Z,11.07
2022-09-26T03:36:39.758Z,11.19
2022-09-26T03:39:06.066Z,11.20
2022-09-26T03:41:32.980Z,11.25
2022-09-26T03:43:59.729Z,11.19
2022-09-26T03:46:26.239Z,11.18
2022-09-26T03:48:52.621Z,11.17
2022-09-26T03:51:20.978Z,11.09
2022-09-26T03:53:47.376Z,11.01
2022-09-26T03:56:15.043Z,10.99
2022-09-26T03:58:42.592Z,11.06
2022-09-26T04:01:14.004Z,11.04
2022-09-26T04:03:44.117Z,10.94
2022-09-26T04:06:19.303Z,11.08
2022-09-26T04:08:46.435Z,11.13
2022-09-26T04:11:14.616Z,11.11
2022-09-26T04:13:51.480Z,11.15
2022-09-26T04:16:20.143Z,11.06
2022-09-26T04:18:46.966Z,11.10
2022-09-26T04:21:14.120Z,11.07
2022-09-26T04:23:40.903Z,11.01
2022-09-26T04:26:08.541Z,10.97
2022-09-26T04:28:35.265Z,10.91
2022-09-26T04:31:02.348Z,10.87
2022-09-26T04:33:29.430Z,10.92
2022-09-26T04:35:55.730Z,10.66
2022-09-26T04:38:22.093Z,10.70
2022-09-26T04:40:48.424Z,10.60
2022-09-26T04:43:14.755Z,10.46
2022-09-26T04:45:42.686Z,10.39
2022-09-26T04:48:10.187Z,10.37
2022-09-26T04:50:36.483Z,10.14
2022-09-26T04:53:02.872Z,10.11
2022-09-26T04:55:29.161Z,10.06
2022-09-26T04:57:55.520Z,10.05
2022-09-26T05:00:22.152Z,10.24
2022-09-26T05:02:48.532Z,9.97
2022-09-26T05:05:15.255Z,10.15
2022-09-26T05:07:42.210Z,10.15
2022-09-26T05:10:10.765Z,10.33
2022-09-26T05:12:40.334Z,10.24
2022-09-26T05:15:08.983Z,10.24
2022-09-26T05:17:38.027Z,10.29
2022-09-26T05:20:08.434Z,10.31
2022-09-26T05:22:35.182Z,10.21
2022-09-26T05:25:20.689Z,10.32
2022-09-26T05:27:47.902Z,10.51
2022-09-26T05:30:14.374Z,10.39
2022-09-26T05:32:41.379Z,10.48
2022-09-26T05:35:07.970Z,10.44
2022-09-26T05:37:34.253Z,10.41
2022-09-26T05:40:19.317Z,10.50
2022-09-26T05:42:45.743Z,10.50
2022-09-26T05:45:15.600Z,10.57
2022-09-26T05:47:41.896Z,10.64
2022-09-26T05:50:10.962Z,10.62
2022-09-26T05:52:37.991Z,10.60
2022-09-26T05:55:04.973Z,10.54
2022-09-26T05:57:31.361Z,10.62
2022-09-26T05:59:58.076Z,10.57
2022-09-26T06:02:24.382Z,10.56
2022-09-26T06:04:50.684Z,10.62
2022-09-26T06:07:16.952Z,10.53
2022-09-26T06:09:44.659Z,10.60
2022-09-26T06:12:10.945Z,10.57
2022-09-26T06:14:37.241Z,10.62
2022-09-26T06:17:03.560Z,10.68
2022-09-26T06:19:29.922Z,10.72
2022-09-26T06:21:56.223Z,10.70
2022-09-26T06:24:22.786Z,10.57
2022-09-26T06:26:49.418Z,10.51
2022-09-26T06:29:15.868Z,10.53
2022-09-26T06:31:42.624Z,10.57
2022-09-26T06:34:09.048Z,10.44
2022-09-26T06:36:35.814Z,10.51
2022-09-26T06:39:02.158Z,10.44
2022-09-26T06:41:28.453Z,10.47
2022-09-26T06:43:54.782Z,10.56
2022-09-26T06:46:21.559Z,10.45
2022-09-26T06:48:48.213Z,10.45
2022-09-26T06:51:14.547Z,10.55
2022-09-26T06:53:41.055Z,10.65
2022-09-26T06:56:07.917Z,10.59
2022-09-26T06:58:34.287Z,10.62
2022-09-26T07:01:01.050Z,10.65
2022-09-26T07:03:28.568Z,10.44
2022-09-26T07:05:56.356Z,10.76
2022-09-26T07:08:37.330Z,10.78
2022-09-26T07:11:32.323Z,10.80
2022-09-26T07:13:55.212Z,10.73
2022-09-26T07:16:21.922Z,10.87
2022-09-26T07:18:48.227Z,10.94
2022-09-26T07:21:14.605Z,11.10
2022-09-26T07:23:40.890Z,11.14
2022-09-26T07:26:07.195Z,11.09
2022-09-26T07:28:34.020Z,11.30
2022-09-26T07:31:00.511Z,11.20
2022-09-26T07:33:26.851Z,11.19
2022-09-26T07:35:53.178Z,11.33
2022-09-26T07:38:19.524Z,11.26
2022-09-26T07:40:45.939Z,11.23
2022-09-26T07:43:20.640Z,11.32
2022-09-26T07:46:09.257Z,11.36
2022-09-26T07:48:54.367Z,11.41
2022-09-26T07:51:23.093Z,11.40
2022-09-26T07:53:49.538Z,11.50
2022-09-26T07:56:16.731Z,11.50
2022-09-26T07:58:43.478Z,11.56
2022-09-26T08:01:14.644Z,11.69
2022-09-26T08:03:42.132Z,11.75
2022-09-26T08:06:08.741Z,11.89
2022-09-26T08:08:35.369Z,11.97
2022-09-26T08:11:04.207Z,12.00
2022-09-26T08:13:31.789Z,12.02
2022-09-26T08:16:02.267Z,11.99
2022-09-26T08:18:28.610Z,12.03
2022-09-26T08:20:54.897Z,12.16
2022-09-26T08:23:21.395Z,12.24
2022-09-26T08:25:47.679Z,12.26
2022-09-26T08:28:14.039Z,12.36
2022-09-26T08:30:40.769Z,12.37
2022-09-26T08:33:14.985Z,12.41
2022-09-26T08:35:41.322Z,12.43
2022-09-26T08:38:08.919Z,12.34
2022-09-26T08:40:45.823Z,12.49
2022-09-26T08:43:29.879Z,12.52
2022-09-26T08:46:11.511Z,12.47
2022-09-26T08:48:57.017Z,12.58
2022-09-26T08:51:29.333Z,12.65
2022-09-26T08:54:01.363Z,12.64
2022-09-26T08:56:34.013Z,12.77
2022-09-26T08:59:01.846Z,12.68
2022-09-26T09:01:29.555Z,12.82
2022-09-26T09:04:02.263Z,12.89
2022-09-26T09:06:29.020Z,12.85
2022-09-26T09:08:56.306Z,12.84
2022-09-26T09:11:34.813Z,12.82
2022-09-26T09:14:15.892Z,12.94
2022-09-26T09:17:00.772Z,13.10
2022-09-26T09:19:38.544Z,13.06
2022-09-26T09:22:34.010Z,13.04
2022-09-26T09:25:03.154Z,13.15
2022-09-26T09:27:53.499Z,13.10
2022-09-26T09:30:22.464Z,13.24
2022-09-26T09:32:56.557Z,13.15
2022-09-26T09:35:33.119Z,13.27
2022-09-26T09:37:59.862Z,13.19
2022-09-26T09:40:35.604Z,13.27
2022-09-26T09:43:14.665Z,13.31
2022-09-26T09:45:46.739Z,13.31
2022-09-26T09:48:13.799Z,13.33
2022-09-26T09:50:43.294Z,13.38
2022-09-26T09:53:12.309Z,13.46
2022-09-26T09:55:45.153Z,13.49
2022-09-26T09:58:29.990Z,13.46
2022-09-26T10:01:15.474Z,13.52
2022-09-26T10:03:49.473Z,13.61
2022-09-26T10:06:46.554Z,13.67
2022-09-26T10:09:35.230Z,13.71
2022-09-26T10:12:10.780Z,13.73
2022-09-26T10:14:42.736Z,13.77
2022-09-26T10:17:09.004Z,13.84
2022-09-26T10:19:37.383Z,13.83
2022-09-26T10:22:08.419Z,13.84
2022-09-26T10:24:40.716Z,13.85
2022-09-26T10:27:35.049Z,13.85
2022-09-26T10:30:02.462Z,13.85
2022-09-26T10:32:29.206Z,13.91
2022-09-26T10:35:03.523Z,13.90
2022-09-26T10:37:30.278Z,13.97
2022-09-26T10:40:16.477Z,14.00
2022-09-26T10:42:46.918Z,14.00
2022-09-26T10:45:27.073Z,14.06
2022-09-26T10:47:55.590Z,14.14
2022-09-26T10:50:26.057Z,14.09
2022-09-26T10:52:54.648Z,14.08
2022-09-26T10:55:26.150Z,14.05
2022-09-26T10:57:54.219Z,14.06
2022-09-26T11:00:40.810Z,14.11
2022-09-26T11:03:08.979Z,14.10
2022-09-26T11:05:54.672Z,14.04
2022-09-26T11:08:21.789Z,14.03
2022-09-26T11:10:49.231Z,14.09
2022-09-26T11:13:17.438Z,14.08
2022-09-26T11:16:01.406Z,14.09
2022-09-26T11:18:37.044Z,14.06
2022-09-26T11:21:28.399Z,14.08
2022-09-26T11:24:03.058Z,14.12
2022-09-26T11:26:38.590Z,14.10
2022-09-26T11:32:18.246Z,14.22
2022-09-26T11:37:36.455Z,14.28
2022-09-26T11:40:10.036Z,14.25
2022-09-26T11:42:57.870Z,14.40
2022-09-26T11:45:40.860Z,14.33
2022-09-26T11:48:15.055Z,14.37
2022-09-26T11:50:59.979Z,14.41
2022-09-26T11:53:26.636Z,14.48
2022-09-26T11:55:59.063Z,14.53
2022-09-26T11:58:40.044Z,14.50
2022-09-26T12:01:27.229Z,14.58
2022-09-26T12:03:53.663Z,14.59
2022-09-26T12:06:38.930Z,14.63
2022-09-26T12:09:25.603Z,14.68
2022-09-26T12:11:52.834Z,14.71
2022-09-26T12:14:39.087Z,14.73
2022-09-26T12:17:36.047Z,14.69
2022-09-26T12:20:06.780Z,14.73
2022-09-26T12:22:59.433Z,14.70
2022-09-26T12:25:40.864Z,14.71
2022-09-26T12:28:08.426Z,14.69
2022-09-26T12:30:40.279Z,14.62
2022-09-26T12:33:25.158Z,14.61
2022-09-26T12:35:56.476Z,14.60
2022-09-26T12:38:24.569Z,14.61
2022-09-26T12:41:13.661Z,14.60
2022-09-26T12:43:58.773Z,14.71
2022-09-26T12:46:28.432Z,14.68
2022-09-26T12:49:13.433Z,14.55
2022-09-26T12:51:55.442Z,14.44
2022-09-26T12:54:24.752Z,14.48
2022-09-26T12:57:08.199Z,14.50
2022-09-26T12:59:38.538Z,14.58
2022-09-26T13:02:08.119Z,14.58
2022-09-26T13:04:41.547Z,14.58
2022-09-26T13:07:19.487Z,14.52
2022-09-26T13:09:58.935Z,14.55
2022-09-26T13:12:40.634Z,14.56
2022-09-26T13:15:22.468Z,14.52
2022-09-26T13:17:54.540Z,14.53
2022-09-26T13:26:28.854Z,14.49
2022-09-26T13:29:16.377Z,14.51
2022-09-26T13:31:46.725Z,14.51
2022-09-26T13:34:20.196Z,14.59
2022-09-26T13:36:46.962Z,14.68
2022-09-26T13:39:16.827Z,14.72
2022-09-26T13:41:52.188Z,14.73
2022-09-26T13:44:44.671Z,14.80
2022-09-26T13:47:19.950Z,14.86
2022-09-26T13:49:51.045Z,14.84
2022-09-26T13:52:36.054Z,14.88
2022-09-26T13:55:19.912Z,14.90
2022-09-26T13:57:46.700Z,14.94
2022-09-26T14:00:26.040Z,15.02
2022-09-26T14:03:10.837Z,15.04
2022-09-26T14:05:46.855Z,15.04
2022-09-26T14:08:44.310Z,15.05
2022-09-26T14:11:32.402Z,15.02
2022-09-26T14:14:21.380Z,14.97
2022-09-26T14:16:54.819Z,14.98
2022-09-26T14:19:30.157Z,14.94
2022-09-26T14:22:05.299Z,14.98
2022-09-26T14:24:36.408Z,14.93
2022-09-26T14:27:04.465Z,14.93
2022-09-26T14:29:40.346Z,14.82
2022-09-26T14:32:12.394Z,14.83
2022-09-26T14:34:41.925Z,14.74
2022-09-26T14:37:26.194Z,14.73
2022-09-26T14:40:00.418Z,14.73
2022-09-26T14:42:32.768Z,14.67
2022-09-26T14:45:01.214Z,14.71
2022-09-26T14:47:29.609Z,14.56
2022-09-26T14:50:06.691Z,14.63
2022-09-26T14:52:33.990Z,14.61
2022-09-26T14:55:01.739Z,14.63
2022-09-26T14:57:30.829Z,14.61
2022-09-26T14:59:58.317Z,14.57
2022-09-26T15:02:41.170Z,14.63
2022-09-26T15:05:11.251Z,14.47
2022-09-26T15:07:45.515Z,14.36
2022-09-26T15:10:11.829Z,14.44
2022-09-26T15:12:43.666Z,14.39
2022-09-26T15:15:16.438Z,14.31
2022-09-26T15:17:52.625Z,14.30
2022-09-26T15:20:21.499Z,14.21
2022-09-26T15:22:48.322Z,14.26
2022-09-26T15:25:22.696Z,14.27
2022-09-26T15:27:55.982Z,14.15
2022-09-26T15:30:24.376Z,14.12
2022-09-26T15:32:55.984Z,14.21
2022-09-26T15:35:22.443Z,14.21
2022-09-26T15:37:48.929Z,14.24
2022-09-26T15:40:19.321Z,14.29
2022-09-26T15:42:58.268Z,14.28
2022-09-26T15:45:28.392Z,14.25
2022-09-26T15:47:56.308Z,14.41
2022-09-26T15:50:27.554Z,14.50
2022-09-26T15:53:00.404Z,14.51
2022-09-26T15:55:45.073Z,14.51
2022-09-26T15:58:15.229Z,14.49
2022-09-26T16:00:47.226Z,14.33
2022-09-26T16:03:32.251Z,14.27
2022-09-26T16:05:58.631Z,14.44
2022-09-26T16:08:28.021Z,14.35
2022-09-26T16:10:59.603Z,14.38
2022-09-26T16:13:27.438Z,14.29
2022-09-26T16:16:06.076Z,14.20
2022-09-26T16:18:38.746Z,14.05
2022-09-26T16:21:25.752Z,14.03
2022-09-26T16:23:53.272Z,13.99
2022-09-26T16:26:31.100Z,14.04
2022-09-26T16:28:58.559Z,13.82
2022-09-26T16:31:36.357Z,13.74
2022-09-26T16:34:03.466Z,13.59
2022-09-26T16:36:31.253Z,13.51
2022-09-26T16:38:59.302Z,13.66
2022-09-26T16:44:37.538Z,13.44
2022-09-26T16:47:05.741Z,13.40
2022-09-26T16:49:42.858Z,13.26
2022-09-26T16:52:18.187Z,13.20
2022-09-26T16:54:44.630Z,13.11
2022-09-26T16:57:25.257Z,13.01
2022-09-26T16:59:52.863Z,13.06
2022-09-26T17:02:20.335Z,13.00
2022-09-26T17:04:48.289Z,12.83
2022-09-26T17:07:15.102Z,12.78
2022-09-26T17:09:42.778Z,12.69
2022-09-26T17:12:14.916Z,12.73
2022-09-26T17:14:41.860Z,12.69
2022-09-26T17:17:12.868Z,12.62
2022-09-26T17:19:40.295Z,12.64
2022-09-26T17:22:13.159Z,12.58
2022-09-26T17:24:39.684Z,12.60
2022-09-26T17:27:06.724Z,12.61
2022-09-26T17:29:39.979Z,12.73
2022-09-26T17:32:12.012Z,12.92
2022-09-26T17:34:38.459Z,13.08
2022-09-26T17:37:04.825Z,13.26
2022-09-26T17:39:31.169Z,13.34
2022-09-26T17:41:59.163Z,13.42
2022-09-26T17:44:25.840Z,13.51
2022-09-26T17:46:54.758Z,13.56
2022-09-26T17:49:26.393Z,13.53
2022-09-26T17:51:58.268Z,13.64
2022-09-26T17:54:28.978Z,13.62
2022-09-26T17:56:55.369Z,13.64
2022-09-26T17:59:23.224Z,13.64
2022-09-26T18:01:55.100Z,13.63
2022-09-26T18:04:25.028Z,13.62
2022-09-26T18:06:51.534Z,13.58
2022-09-26T18:09:18.859Z,13.56
2022-09-26T18:11:49.958Z,13.21
2022-09-26T18:14:17.381Z,13.34
2022-09-26T18:16:46.437Z,13.37
2022-09-26T18:19:12.880Z,13.12
2022-09-26T18:21:42.431Z,12.90
2022-09-26T18:24:18.625Z,12.87
2022-09-26T18:26:47.438Z,12.90
2022-09-26T18:29:16.096Z,12.89
2022-09-26T18:31:45.131Z,12.91
2022-09-26T18:34:20.462Z,12.85
2022-09-26T18:36:48.070Z,12.78
2022-09-26T18:39:14.482Z,12.69
2022-09-26T18:41:41.230Z,12.62
2022-09-26T18:44:13.877Z,12.59
2022-09-26T18:46:44.346Z,12.55
2022-09-26T18:49:11.953Z,12.55
2022-09-26T18:51:38.304Z,12.54
2022-09-26T18:57:51.470Z,12.44
2022-09-26T19:00:17.936Z,12.48
2022-09-26T19:02:45.165Z,12.40
2022-09-26T19:05:15.262Z,12.38
2022-09-26T19:07:44.559Z,12.31
2022-09-26T19:10:19.146Z,12.20
2022-09-26T19:12:45.646Z,12.17
2022-09-26T19:15:13.395Z,12.20
2022-09-26T19:17:39.844Z,12.14
2022-09-26T19:20:06.579Z,12.17
2022-09-26T19:22:33.321Z,12.04
2022-09-26T19:25:00.619Z,12.30
2022-09-26T19:27:29.937Z,12.44
2022-09-26T19:30:01.650Z,12.52
2022-09-26T19:32:32.758Z,12.57
2022-09-26T19:35:00.656Z,12.59
2022-09-26T19:37:27.273Z,12.67
2022-09-26T19:39:53.753Z,12.72
2022-09-26T19:42:20.338Z,12.80
2022-09-26T19:44:46.754Z,12.77
2022-09-26T19:47:15.804Z,12.75
2022-09-26T19:49:42.718Z,12.84
2022-09-26T19:52:13.421Z,12.87
2022-09-26T19:54:39.746Z,12.88
2022-09-26T19:57:10.895Z,12.88
2022-09-26T19:59:37.219Z,12.84
2022-09-26T20:02:09.137Z,12.81
2022-09-26T20:04:35.591Z,12.80
2022-09-26T20:07:02.261Z,12.74
2022-09-26T20:09:28.887Z,12.61
2022-09-26T20:11:55.220Z,12.51
2022-09-26T20:14:24.707Z,12.44
2022-09-26T20:16:52.577Z,12.25
2022-09-26T20:19:25.812Z,12.20
2022-09-26T20:21:52.279Z,12.09
2022-09-26T20:24:19.679Z,12.03
2022-09-26T20:26:47.156Z,12.08
2022-09-26T20:29:14.911Z,12.03
2022-09-26T20:31:44.122Z,11.95
2022-09-26T20:34:17.048Z,11.91
2022-09-26T20:36:46.165Z,11.78
2022-09-26T20:39:14.974Z,11.80
2022-09-26T20:41:42.160Z,11.67
2022-09-26T20:44:13.831Z,11.68
2022-09-26T20:46:45.500Z,11.78
2022-09-26T20:49:14.822Z,11.67
2022-09-26T20:51:41.321Z,11.78
2022-09-26T20:54:19.351Z,11.64
2022-09-26T20:56:47.448Z,11.73
2022-09-26T20:59:13.984Z,11.78
2022-09-26T21:01:40.524Z,11.77
2022-09-26T21:04:12.598Z,11.70
2022-09-26T21:06:38.993Z,11.72
2022-09-26T21:09:05.388Z,11.65
2022-09-26T21:11:31.799Z,11.73
2022-09-26T21:13:58.133Z,11.56
2022-09-26T21:16:25.017Z,11.69
2022-09-26T21:18:52.692Z,11.71
2022-09-26T21:21:31.012Z,11.72
2022-09-26T21:23:59.051Z,11.75
2022-09-26T21:26:26.988Z,11.73
2022-09-26T21:28:54.277Z,11.81
2022-09-26T21:31:32.237Z,11.91
2022-09-26T21:33:59.411Z,12.03
2022-09-26T21:36:31.538Z,12.17
2022-09-26T21:39:01.335Z,12.25
2022-09-26T21:41:29.262Z,12.10
2022-09-26T21:43:59.380Z,12.25
2022-09-26T21:46:27.342Z,12.45
2022-09-26T21:48:54.097Z,12.46
2022-09-26T21:51:22.233Z,12.46
2022-09-26T21:53:52.488Z,12.53
2022-09-26T21:56:25.524Z,12.66
2022-09-26T21:58:52.539Z,12.57
2022-09-26T22:01:18.943Z,12.69
2022-09-26T22:03:45.316Z,12.66
2022-09-26T22:06:11.727Z,12.64
2022-09-26T22:08:39.285Z,12.55
2022-09-26T22:11:06.415Z,12.64
2022-09-26T22:13:34.727Z,12.57
2022-09-26T22:16:05.308Z,12.48
2022-09-26T22:18:32.458Z,12.43
2022-09-26T22:20:58.847Z,12.38
2022-09-26T22:23:26.669Z,12.39
2022-09-26T22:25:53.032Z,12.36
2022-09-26T22:28:19.896Z,12.26
2022-09-26T22:30:46.255Z,12.25
2022-09-26T22:33:13.209Z,12.18
2022-09-26T22:35:39.776Z,12.14
2022-09-26T22:38:06.267Z,12.23
2022-09-26T22:40:32.680Z,12.24
2022-09-26T22:42:59.084Z,12.30
2022-09-26T22:45:25.434Z,12.15
2022-09-26T22:47:51.753Z,12.21
2022-09-26T22:50:18.142Z,12.13
2022-09-26T22:52:44.804Z,12.26
2022-09-26T22:55:11.162Z,12.20
2022-09-26T22:57:37.633Z,12.12
2022-09-26T23:00:04.526Z,12.05
2022-09-26T23:02:30.870Z,12.13
2022-09-26T23:04:57.319Z,12.12
2022-09-26T23:07:23.705Z,12.02
2022-09-26T23:09:50.103Z,12.10
2022-09-26T23:12:17.261Z,12.15
2022-09-26T23:14:43.577Z,12.06
2022-09-26T23:17:09.934Z,12.10
2022-09-26T23:19:36.377Z,12.05
2022-09-26T23:22:02.948Z,12.15
2022-09-26T23:24:29.248Z,12.21
2022-09-26T23:26:58.830Z,12.16
2022-09-26T23:29:25.527Z,12.31
2022-09-26T23:31:52.147Z,12.37
2022-09-26T23:34:18.433Z,12.45
2022-09-26T23:36:44.708Z,12.50
2022-09-26T23:39:11.099Z,12.65
2022-09-26T23:41:37.594Z,12.70
2022-09-26T23:44:03.847Z,12.82
2022-09-26T23:46:30.156Z,12.80
2022-09-26T23:48:56.450Z,12.92
2022-09-26T23:51:22.781Z,12.95
2022-09-26T23:53:49.085Z,12.92
2022-09-26T23:56:15.606Z,12.96
2022-09-26T23:58:41.924Z,13.01
